sensor_id;sensor_type;location;lat;lon;timestamp;temperature;humidity
26051;DHT22;13825;53.496;10.020;2022-08-04T00:02:26;21.80;99.90
26051;DHT22;13825;53.496;10.020;2022-08-04T00:05:00;21.80;99.90
26051;DHT22;13825;53.496;10.020;2022-08-04T00:07:40;21.70;99.90
26051;DHT22;13825;53.496;10.020;2022-08-04T00:10:08;21.60;99.90
26051;DHT22;13825;53.496;10.020;2022-08-04T00:12:37;21.60;99.90
26051;DHT22;13825;53.496;10.020;2022-08-04T00:15:10;21.60;99.90
26051;DHT22;13825;53.496;10.020;2022-08-04T00:17:40;21.50;99.90
26051;DHT22;13825;53.496;10.020;2022-08-04T00:20:11;21.40;99.90
26051;DHT22;13825;53.496;10.020;2022-08-04T00:22:43;21.20;99.90
26051;DHT22;13825;53.496;10.020;2022-08-04T00:25:11;21.20;99.90
26051;DHT22;13825;53.496;10.020;2022-08-04T00:27:37;21.20;99.90
26051;DHT22;13825;53.496;10.020;2022-08-04T00:30:07;21.10;99.90
26051;DHT22;13825;53.496;10.020;2022-08-04T00:32:35;21.10;99.90
26051;DHT22;13825;53.496;10.020;2022-08-04T00:35:04;21.00;99.90
26051;DHT22;13825;53.496;10.020;2022-08-04T00:37:32;21.00;99.90
26051;DHT22;13825;53.496;10.020;2022-08-04T00:40:00;21.00;99.90
26051;DHT22;13825;53.496;10.020;2022-08-04T00:42:40;20.90;99.90
26051;DHT22;13825;53.496;10.020;2022-08-04T00:45:33;20.90;99.90
26051;DHT22;13825;53.496;10.020;2022-08-04T00:48:10;20.70;99.90
26051;DHT22;13825;53.496;10.020;2022-08-04T00:50:44;20.70;99.90
26051;DHT22;13825;53.496;10.020;2022-08-04T00:53:15;20.70;99.90
26051;DHT22;13825;53.496;10.020;2022-08-04T00:56:04;20.70;99.90
26051;DHT22;13825;53.496;10.020;2022-08-04T00:58:42;20.70;99.90
26051;DHT22;13825;53.496;10.020;2022-08-04T01:01:21;20.60;99.90
26051;DHT22;13825;53.496;10.020;2022-08-04T01:04:01;20.50;99.90
26051;DHT22;13825;53.496;10.020;2022-08-04T01:06:40;20.40;99.90
26051;DHT22;13825;53.496;10.020;2022-08-04T01:09:25;20.30;99.90
26051;DHT22;13825;53.496;10.020;2022-08-04T01:12:15;20.30;99.90
26051;DHT22;13825;53.496;10.020;2022-08-04T01:14:53;20.40;99.90
26051;DHT22;13825;53.496;10.020;2022-08-04T01:17:24;20.30;99.90
26051;DHT22;13825;53.496;10.020;2022-08-04T01:19:59;20.40;99.90
26051;DHT22;13825;53.496;10.020;2022-08-04T01:26:17;20.20;99.90
26051;DHT22;13825;53.496;10.020;2022-08-04T01:29:03;20.10;99.90
26051;DHT22;13825;53.496;10.020;2022-08-04T01:31:36;20.10;99.90
26051;DHT22;13825;53.496;10.020;2022-08-04T01:34:06;20.10;99.90
26051;DHT22;13825;53.496;10.020;2022-08-04T01:36:39;20.00;99.90
26051;DHT22;13825;53.496;10.020;2022-08-04T01:39:08;20.00;99.90
26051;DHT22;13825;53.496;10.020;2022-08-04T01:41:51;19.90;99.90
26051;DHT22;13825;53.496;10.020;2022-08-04T01:44:20;20.00;99.90
26051;DHT22;13825;53.496;10.020;2022-08-04T01:46:49;19.90;99.90
26051;DHT22;13825;53.496;10.020;2022-08-04T01:49:20;19.90;99.90
26051;DHT22;13825;53.496;10.020;2022-08-04T01:51:49;19.80;99.90
26051;DHT22;13825;53.496;10.020;2022-08-04T01:54:17;19.70;99.90
26051;DHT22;13825;53.496;10.020;2022-08-04T01:56:46;19.70;99.90
26051;DHT22;13825;53.496;10.020;2022-08-04T01:59:17;19.70;99.90
26051;DHT22;13825;53.496;10.020;2022-08-04T02:01:45;19.70;99.90
26051;DHT22;13825;53.496;10.020;2022-08-04T02:04:13;19.70;99.90
26051;DHT22;13825;53.496;10.020;2022-08-04T02:06:51;19.60;99.90
26051;DHT22;13825;53.496;10.020;2022-08-04T02:09:23;19.60;99.90
26051;DHT22;13825;53.496;10.020;2022-08-04T02:12:01;19.50;99.90
26051;DHT22;13825;53.496;10.020;2022-08-04T02:14:30;19.50;99.90
26051;DHT22;13825;53.496;10.020;2022-08-04T02:17:11;19.40;99.90
26051;DHT22;13825;53.496;10.020;2022-08-04T02:19:50;19.30;99.90
26051;DHT22;13825;53.496;10.020;2022-08-04T02:22:21;19.30;99.90
26051;DHT22;13825;53.496;10.020;2022-08-04T02:24:49;19.30;99.90
26051;DHT22;13825;53.496;10.020;2022-08-04T02:27:20;19.30;99.90
26051;DHT22;13825;53.496;10.020;2022-08-04T02:29:53;19.30;99.90
26051;DHT22;13825;53.496;10.020;2022-08-04T02:32:26;19.30;99.90
26051;DHT22;13825;53.496;10.020;2022-08-04T02:35:02;19.20;99.90
26051;DHT22;13825;53.496;10.020;2022-08-04T02:37:31;19.20;99.90
26051;DHT22;13825;53.496;10.020;2022-08-04T02:40:01;19.10;99.90
26051;DHT22;13825;53.496;10.020;2022-08-04T02:42:28;19.10;99.90
26051;DHT22;13825;53.496;10.020;2022-08-04T02:44:57;19.10;99.90
26051;DHT22;13825;53.496;10.020;2022-08-04T02:47:27;19.00;99.90
26051;DHT22;13825;53.496;10.020;2022-08-04T02:49:56;19.00;99.90
26051;DHT22;13825;53.496;10.020;2022-08-04T02:52:23;18.90;99.90
26051;DHT22;13825;53.496;10.020;2022-08-04T02:54:53;18.90;99.90
26051;DHT22;13825;53.496;10.020;2022-08-04T02:57:23;18.90;99.90
26051;DHT22;13825;53.496;10.020;2022-08-04T03:00:04;18.90;99.90
26051;DHT22;13825;53.496;10.020;2022-08-04T03:02:46;18.90;99.90
26051;DHT22;13825;53.496;10.020;2022-08-04T03:05:17;18.90;99.90
26051;DHT22;13825;53.496;10.020;2022-08-04T03:11:21;18.90;99.90
26051;DHT22;13825;53.496;10.020;2022-08-04T03:14:07;18.80;99.90
26051;DHT22;13825;53.496;10.020;2022-08-04T03:20:19;18.70;99.90
26051;DHT22;13825;53.496;10.020;2022-08-04T03:23:14;18.70;99.90
26051;DHT22;13825;53.496;10.020;2022-08-04T03:25:59;18.60;99.90
26051;DHT22;13825;53.496;10.020;2022-08-04T03:34:52;18.60;99.90
26051;DHT22;13825;53.496;10.020;2022-08-04T03:40:34;18.60;99.90
26051;DHT22;13825;53.496;10.020;2022-08-04T03:43:29;18.60;99.90
26051;DHT22;13825;53.496;10.020;2022-08-04T03:52:25;18.50;99.90
26051;DHT22;13825;53.496;10.020;2022-08-04T04:01:39;18.50;99.90
26051;DHT22;13825;53.496;10.020;2022-08-04T04:04:29;18.50;99.90
26051;DHT22;13825;53.496;10.020;2022-08-04T04:10:16;18.50;99.90
26051;DHT22;13825;53.496;10.020;2022-08-04T04:12:59;18.60;99.90
26051;DHT22;13825;53.496;10.020;2022-08-04T04:15:38;18.60;99.90
26051;DHT22;13825;53.496;10.020;2022-08-04T04:18:15;18.60;99.90
26051;DHT22;13825;53.496;10.020;2022-08-04T04:21:24;18.70;99.90
26051;DHT22;13825;53.496;10.020;2022-08-04T04:24:05;18.70;99.90
26051;DHT22;13825;53.496;10.020;2022-08-04T04:26:54;18.70;99.90
26051;DHT22;13825;53.496;10.020;2022-08-04T04:32:54;18.80;99.90
26051;DHT22;13825;53.496;10.020;2022-08-04T04:35:33;18.90;99.90
26051;DHT22;13825;53.496;10.020;2022-08-04T04:38:31;18.90;99.90
26051;DHT22;13825;53.496;10.020;2022-08-04T04:41:20;19.00;99.90
26051;DHT22;13825;53.496;10.020;2022-08-04T04:46:49;19.10;99.90
26051;DHT22;13825;53.496;10.020;2022-08-04T04:49:28;19.20;99.90
26051;DHT22;13825;53.496;10.020;2022-08-04T04:52:04;19.30;99.90
26051;DHT22;13825;53.496;10.020;2022-08-04T04:54:38;19.40;99.90
26051;DHT22;13825;53.496;10.020;2022-08-04T04:57:19;19.50;99.90
26051;DHT22;13825;53.496;10.020;2022-08-04T04:59:49;19.60;99.90
26051;DHT22;13825;53.496;10.020;2022-08-04T05:02:35;19.70;99.90
26051;DHT22;13825;53.496;10.020;2022-08-04T05:05:23;19.90;99.90
26051;DHT22;13825;53.496;10.020;2022-08-04T05:08:12;20.20;99.90
26051;DHT22;13825;53.496;10.020;2022-08-04T05:11:05;20.30;99.90
26051;DHT22;13825;53.496;10.020;2022-08-04T05:13:39;20.50;99.90
26051;DHT22;13825;53.496;10.020;2022-08-04T05:16:13;20.60;99.90
26051;DHT22;13825;53.496;10.020;2022-08-04T05:18:45;20.70;99.90
26051;DHT22;13825;53.496;10.020;2022-08-04T05:21:22;20.80;99.90
26051;DHT22;13825;53.496;10.020;2022-08-04T05:23:57;20.90;99.90
26051;DHT22;13825;53.496;10.020;2022-08-04T05:26:30;21.00;99.90
26051;DHT22;13825;53.496;10.020;2022-08-04T05:29:01;21.20;99.90
26051;DHT22;13825;53.496;10.020;2022-08-04T05:31:33;21.30;99.90
26051;DHT22;13825;53.496;10.020;2022-08-04T05:34:06;21.40;99.90
26051;DHT22;13825;53.496;10.020;2022-08-04T05:36:37;21.50;99.90
26051;DHT22;13825;53.496;10.020;2022-08-04T05:39:12;21.70;99.90
26051;DHT22;13825;53.496;10.020;2022-08-04T05:41:42;21.80;99.90
26051;DHT22;13825;53.496;10.020;2022-08-04T05:44:13;21.90;99.90
26051;DHT22;13825;53.496;10.020;2022-08-04T05:46:41;22.00;99.90
26051;DHT22;13825;53.496;10.020;2022-08-04T05:49:09;22.00;99.90
26051;DHT22;13825;53.496;10.020;2022-08-04T05:51:37;22.10;99.90
26051;DHT22;13825;53.496;10.020;2022-08-04T05:54:05;22.20;99.90
26051;DHT22;13825;53.496;10.020;2022-08-04T05:56:33;22.20;99.90
26051;DHT22;13825;53.496;10.020;2022-08-04T05:59:02;22.20;99.90
26051;DHT22;13825;53.496;10.020;2022-08-04T06:01:30;22.20;99.90
26051;DHT22;13825;53.496;10.020;2022-08-04T06:04:00;22.30;99.90
26051;DHT22;13825;53.496;10.020;2022-08-04T06:06:29;22.30;99.90
26051;DHT22;13825;53.496;10.020;2022-08-04T06:08:56;22.40;99.90
26051;DHT22;13825;53.496;10.020;2022-08-04T06:11:26;22.40;99.90
26051;DHT22;13825;53.496;10.020;2022-08-04T06:13:55;22.50;99.90
26051;DHT22;13825;53.496;10.020;2022-08-04T06:16:26;22.50;99.90
26051;DHT22;13825;53.496;10.020;2022-08-04T06:18:55;22.50;99.90
26051;DHT22;13825;53.496;10.020;2022-08-04T06:21:26;22.50;99.90
26051;DHT22;13825;53.496;10.020;2022-08-04T06:23:55;22.50;99.90
26051;DHT22;13825;53.496;10.020;2022-08-04T06:26:24;22.60;99.90
26051;DHT22;13825;53.496;10.020;2022-08-04T06:28:53;22.60;99.90
26051;DHT22;13825;53.496;10.020;2022-08-04T06:31:21;22.60;99.90
26051;DHT22;13825;53.496;10.020;2022-08-04T06:34:08;22.60;99.90
26051;DHT22;13825;53.496;10.020;2022-08-04T06:36:36;22.60;99.90
26051;DHT22;13825;53.496;10.020;2022-08-04T06:39:06;22.60;99.90
26051;DHT22;13825;53.496;10.020;2022-08-04T06:41:35;22.60;99.90
26051;DHT22;13825;53.496;10.020;2022-08-04T06:44:06;22.70;99.90
26051;DHT22;13825;53.496;10.020;2022-08-04T06:46:35;22.80;99.90
26051;DHT22;13825;53.496;10.020;2022-08-04T06:49:03;22.90;99.90
26051;DHT22;13825;53.496;10.020;2022-08-04T06:51:32;23.00;99.90
26051;DHT22;13825;53.496;10.020;2022-08-04T06:53:59;23.10;99.90
26051;DHT22;13825;53.496;10.020;2022-08-04T06:56:26;23.30;99.90
26051;DHT22;13825;53.496;10.020;2022-08-04T06:58:58;23.30;99.90
26051;DHT22;13825;53.496;10.020;2022-08-04T07:01:27;23.40;99.90
26051;DHT22;13825;53.496;10.020;2022-08-04T07:03:54;23.40;99.90
26051;DHT22;13825;53.496;10.020;2022-08-04T07:06:22;23.50;99.90
26051;DHT22;13825;53.496;10.020;2022-08-04T07:08:50;23.60;99.90
26051;DHT22;13825;53.496;10.020;2022-08-04T07:11:18;23.70;99.90
26051;DHT22;13825;53.496;10.020;2022-08-04T07:13:46;23.90;99.90
26051;DHT22;13825;53.496;10.020;2022-08-04T07:16:17;24.00;99.90
26051;DHT22;13825;53.496;10.020;2022-08-04T07:18:45;24.20;99.90
26051;DHT22;13825;53.496;10.020;2022-08-04T07:21:21;24.50;99.90
26051;DHT22;13825;53.496;10.020;2022-08-04T07:23:48;24.60;99.90
26051;DHT22;13825;53.496;10.020;2022-08-04T07:26:15;24.80;99.90
26051;DHT22;13825;53.496;10.020;2022-08-04T07:28:44;24.90;1.00
26051;DHT22;13825;53.496;10.020;2022-08-04T07:31:14;25.00;12.90
26051;DHT22;13825;53.496;10.020;2022-08-04T07:33:43;25.10;1.00
26051;DHT22;13825;53.496;10.020;2022-08-04T07:36:11;25.30;1.00
26051;DHT22;13825;53.496;10.020;2022-08-04T07:38:39;25.40;1.00
26051;DHT22;13825;53.496;10.020;2022-08-04T07:41:06;25.50;73.30
26051;DHT22;13825;53.496;10.020;2022-08-04T07:43:35;25.60;1.00
26051;DHT22;13825;53.496;10.020;2022-08-04T07:46:03;25.70;1.00
26051;DHT22;13825;53.496;10.020;2022-08-04T07:48:30;25.80;99.90
26051;DHT22;13825;53.496;10.020;2022-08-04T07:50:58;25.90;78.80
26051;DHT22;13825;53.496;10.020;2022-08-04T07:53:26;26.20;99.90
26051;DHT22;13825;53.496;10.020;2022-08-04T07:55:54;26.30;1.00
26051;DHT22;13825;53.496;10.020;2022-08-04T07:58:21;26.40;99.90
26051;DHT22;13825;53.496;10.020;2022-08-04T08:00:48;26.50;1.00
26051;DHT22;13825;53.496;10.020;2022-08-04T08:03:16;26.70;99.90
26051;DHT22;13825;53.496;10.020;2022-08-04T08:05:44;26.90;99.90
26051;DHT22;13825;53.496;10.020;2022-08-04T08:08:12;27.00;99.90
26051;DHT22;13825;53.496;10.020;2022-08-04T08:10:45;27.00;1.00
26051;DHT22;13825;53.496;10.020;2022-08-04T08:13:11;27.20;1.00
26051;DHT22;13825;53.496;10.020;2022-08-04T08:15:39;27.20;1.00
26051;DHT22;13825;53.496;10.020;2022-08-04T08:18:06;27.30;1.00
26051;DHT22;13825;53.496;10.020;2022-08-04T08:20:33;27.50;99.90
26051;DHT22;13825;53.496;10.020;2022-08-04T08:23:01;27.70;1.00
26051;DHT22;13825;53.496;10.020;2022-08-04T08:25:31;27.90;99.90
26051;DHT22;13825;53.496;10.020;2022-08-04T08:27:58;28.00;1.00
26051;DHT22;13825;53.496;10.020;2022-08-04T08:30:25;28.30;1.00
26051;DHT22;13825;53.496;10.020;2022-08-04T08:32:52;28.40;1.00
26051;DHT22;13825;53.496;10.020;2022-08-04T08:35:19;28.60;99.90
26051;DHT22;13825;53.496;10.020;2022-08-04T08:37:53;28.90;99.90
26051;DHT22;13825;53.496;10.020;2022-08-04T08:40:28;29.10;1.00
26051;DHT22;13825;53.496;10.020;2022-08-04T08:43:30;29.20;1.00
26051;DHT22;13825;53.496;10.020;2022-08-04T08:46:34;29.40;99.90
26051;DHT22;13825;53.496;10.020;2022-08-04T08:49:24;29.50;99.90
26051;DHT22;13825;53.496;10.020;2022-08-04T08:52:07;29.50;99.90
26051;DHT22;13825;53.496;10.020;2022-08-04T08:54:52;29.60;1.00
26051;DHT22;13825;53.496;10.020;2022-08-04T08:57:38;29.70;1.00
26051;DHT22;13825;53.496;10.020;2022-08-04T09:00:13;29.80;99.90
26051;DHT22;13825;53.496;10.020;2022-08-04T09:06:08;30.30;1.00
26051;DHT22;13825;53.496;10.020;2022-08-04T09:08:54;30.20;1.00
26051;DHT22;13825;53.496;10.020;2022-08-04T09:11:27;30.30;1.00
26051;DHT22;13825;53.496;10.020;2022-08-04T09:14:04;30.30;1.00
26051;DHT22;13825;53.496;10.020;2022-08-04T09:16:39;30.30;99.90
26051;DHT22;13825;53.496;10.020;2022-08-04T09:19:14;30.50;99.90
26051;DHT22;13825;53.496;10.020;2022-08-04T09:21:49;30.70;1.00
26051;DHT22;13825;53.496;10.020;2022-08-04T09:24:20;30.80;99.90
26051;DHT22;13825;53.496;10.020;2022-08-04T09:26:54;31.00;1.00
26051;DHT22;13825;53.496;10.020;2022-08-04T09:29:32;31.30;99.90
26051;DHT22;13825;53.496;10.020;2022-08-04T09:32:09;31.40;1.00
26051;DHT22;13825;53.496;10.020;2022-08-04T09:34:42;31.50;1.00
26051;DHT22;13825;53.496;10.020;2022-08-04T09:37:21;31.40;1.00
26051;DHT22;13825;53.496;10.020;2022-08-04T09:39:58;31.60;1.00
26051;DHT22;13825;53.496;10.020;2022-08-04T09:42:43;31.70;99.90
26051;DHT22;13825;53.496;10.020;2022-08-04T09:45:15;31.50;1.00
26051;DHT22;13825;53.496;10.020;2022-08-04T09:47:52;31.60;1.00
26051;DHT22;13825;53.496;10.020;2022-08-04T09:50:30;31.60;99.90
26051;DHT22;13825;53.496;10.020;2022-08-04T09:53:12;31.70;1.00
26051;DHT22;13825;53.496;10.020;2022-08-04T09:55:51;31.60;99.90
26051;DHT22;13825;53.496;10.020;2022-08-04T09:58:26;31.60;99.90
26051;DHT22;13825;53.496;10.020;2022-08-04T10:01:00;31.80;99.90
26051;DHT22;13825;53.496;10.020;2022-08-04T10:03:32;31.90;99.90
26051;DHT22;13825;53.496;10.020;2022-08-04T10:06:09;32.20;1.00
26051;DHT22;13825;53.496;10.020;2022-08-04T10:08:58;32.50;99.90
26051;DHT22;13825;53.496;10.020;2022-08-04T10:11:39;32.80;99.90
26051;DHT22;13825;53.496;10.020;2022-08-04T10:14:22;32.90;1.00
26051;DHT22;13825;53.496;10.020;2022-08-04T10:17:00;33.10;1.00
26051;DHT22;13825;53.496;10.020;2022-08-04T10:19:37;33.00;1.00
26051;DHT22;13825;53.496;10.020;2022-08-04T10:22:12;32.90;1.00
26051;DHT22;13825;53.496;10.020;2022-08-04T10:24:50;32.60;1.00
26051;DHT22;13825;53.496;10.020;2022-08-04T10:27:24;32.50;1.00
26051;DHT22;13825;53.496;10.020;2022-08-04T10:29:57;32.60;1.00
26051;DHT22;13825;53.496;10.020;2022-08-04T10:32:30;32.40;1.00
26051;DHT22;13825;53.496;10.020;2022-08-04T10:35:06;32.20;1.00
26051;DHT22;13825;53.496;10.020;2022-08-04T10:37:38;32.30;1.00
26051;DHT22;13825;53.496;10.020;2022-08-04T10:40:09;33.00;13.30
26051;DHT22;13825;53.496;10.020;2022-08-04T10:42:58;33.40;15.40
26051;DHT22;13825;53.496;10.020;2022-08-04T10:45:31;33.50;13.40
26051;DHT22;13825;53.496;10.020;2022-08-04T10:48:06;33.10;11.00
26051;DHT22;13825;53.496;10.020;2022-08-04T10:50:36;33.30;11.40
26051;DHT22;13825;53.496;10.020;2022-08-04T10:53:08;33.80;10.20
26051;DHT22;13825;53.496;10.020;2022-08-04T10:55:41;34.00;9.40
26051;DHT22;13825;53.496;10.020;2022-08-04T10:58:14;34.20;8.30
26051;DHT22;13825;53.496;10.020;2022-08-04T11:00:43;34.50;6.50
26051;DHT22;13825;53.496;10.020;2022-08-04T11:03:17;34.90;8.20
26051;DHT22;13825;53.496;10.020;2022-08-04T11:05:48;35.30;3.90
26051;DHT22;13825;53.496;10.020;2022-08-04T11:08:18;35.20;1.00
26051;DHT22;13825;53.496;10.020;2022-08-04T11:11:00;34.90;1.00
26051;DHT22;13825;53.496;10.020;2022-08-04T11:13:31;34.90;1.00
26051;DHT22;13825;53.496;10.020;2022-08-04T11:16:04;34.80;1.00
26051;DHT22;13825;53.496;10.020;2022-08-04T11:18:42;35.00;1.00
26051;DHT22;13825;53.496;10.020;2022-08-04T11:21:17;34.60;1.00
26051;DHT22;13825;53.496;10.020;2022-08-04T11:23:54;34.60;1.00
26051;DHT22;13825;53.496;10.020;2022-08-04T11:26:30;34.90;1.00
26051;DHT22;13825;53.496;10.020;2022-08-04T11:29:04;34.80;1.00
26051;DHT22;13825;53.496;10.020;2022-08-04T11:31:35;34.70;1.00
26051;DHT22;13825;53.496;10.020;2022-08-04T11:34:10;34.90;1.00
26051;DHT22;13825;53.496;10.020;2022-08-04T11:36:47;35.20;1.00
26051;DHT22;13825;53.496;10.020;2022-08-04T11:39:24;35.60;1.00
26051;DHT22;13825;53.496;10.020;2022-08-04T11:41:55;35.90;1.00
26051;DHT22;13825;53.496;10.020;2022-08-04T11:44:28;35.80;1.00
26051;DHT22;13825;53.496;10.020;2022-08-04T11:46:58;36.00;1.00
26051;DHT22;13825;53.496;10.020;2022-08-04T11:49:34;35.90;1.00
26051;DHT22;13825;53.496;10.020;2022-08-04T11:52:04;35.90;1.00
26051;DHT22;13825;53.496;10.020;2022-08-04T11:54:33;36.00;1.00
26051;DHT22;13825;53.496;10.020;2022-08-04T11:57:00;36.20;1.00
26051;DHT22;13825;53.496;10.020;2022-08-04T11:59:30;36.70;1.00
26051;DHT22;13825;53.496;10.020;2022-08-04T12:02:10;36.90;1.00
26051;DHT22;13825;53.496;10.020;2022-08-04T12:04:46;37.30;1.00
26051;DHT22;13825;53.496;10.020;2022-08-04T12:07:22;37.30;1.00
26051;DHT22;13825;53.496;10.020;2022-08-04T12:10:01;37.00;1.00
26051;DHT22;13825;53.496;10.020;2022-08-04T12:12:40;36.80;1.00
26051;DHT22;13825;53.496;10.020;2022-08-04T12:15:17;37.10;1.00
26051;DHT22;13825;53.496;10.020;2022-08-04T12:17:50;37.10;1.00
26051;DHT22;13825;53.496;10.020;2022-08-04T12:20:22;37.10;1.00
26051;DHT22;13825;53.496;10.020;2022-08-04T12:22:52;37.00;1.00
26051;DHT22;13825;53.496;10.020;2022-08-04T12:25:23;37.10;1.00
26051;DHT22;13825;53.496;10.020;2022-08-04T12:27:58;37.00;1.00
26051;DHT22;13825;53.496;10.020;2022-08-04T12:30:29;37.40;1.00
26051;DHT22;13825;53.496;10.020;2022-08-04T12:33:03;37.20;1.00
26051;DHT22;13825;53.496;10.020;2022-08-04T12:35:34;37.60;1.00
26051;DHT22;13825;53.496;10.020;2022-08-04T12:38:08;37.70;1.00
26051;DHT22;13825;53.496;10.020;2022-08-04T12:40:44;37.60;1.00
26051;DHT22;13825;53.496;10.020;2022-08-04T12:43:16;37.70;1.00
26051;DHT22;13825;53.496;10.020;2022-08-04T12:45:48;37.30;1.00
26051;DHT22;13825;53.496;10.020;2022-08-04T12:48:17;37.00;1.00
26051;DHT22;13825;53.496;10.020;2022-08-04T12:50:47;36.20;1.00
26051;DHT22;13825;53.496;10.020;2022-08-04T12:53:17;35.80;1.00
26051;DHT22;13825;53.496;10.020;2022-08-04T12:55:47;36.00;1.00
26051;DHT22;13825;53.496;10.020;2022-08-04T12:58:19;36.80;1.00
26051;DHT22;13825;53.496;10.020;2022-08-04T13:00:52;37.50;1.00
26051;DHT22;13825;53.496;10.020;2022-08-04T13:03:22;37.80;1.00
26051;DHT22;13825;53.496;10.020;2022-08-04T13:05:53;37.60;1.00
26051;DHT22;13825;53.496;10.020;2022-08-04T13:08:22;37.70;1.00
26051;DHT22;13825;53.496;10.020;2022-08-04T13:10:52;38.00;1.00
26051;DHT22;13825;53.496;10.020;2022-08-04T13:13:24;38.10;1.00
26051;DHT22;13825;53.496;10.020;2022-08-04T13:15:57;37.50;1.00
26051;DHT22;13825;53.496;10.020;2022-08-04T13:18:25;37.70;1.00
26051;DHT22;13825;53.496;10.020;2022-08-04T13:20:54;37.50;1.00
26051;DHT22;13825;53.496;10.020;2022-08-04T13:23:25;36.90;1.00
26051;DHT22;13825;53.496;10.020;2022-08-04T13:25:54;36.00;1.00
26051;DHT22;13825;53.496;10.020;2022-08-04T13:28:23;35.60;1.00
26051;DHT22;13825;53.496;10.020;2022-08-04T13:30:53;35.60;1.00
26051;DHT22;13825;53.496;10.020;2022-08-04T13:33:22;35.80;1.00
26051;DHT22;13825;53.496;10.020;2022-08-04T13:35:55;35.60;1.00
26051;DHT22;13825;53.496;10.020;2022-08-04T13:38:25;35.90;1.00
26051;DHT22;13825;53.496;10.020;2022-08-04T13:40:55;35.60;1.00
26051;DHT22;13825;53.496;10.020;2022-08-04T13:43:25;35.20;1.00
26051;DHT22;13825;53.496;10.020;2022-08-04T13:45:58;34.80;1.00
26051;DHT22;13825;53.496;10.020;2022-08-04T13:48:30;34.80;1.00
26051;DHT22;13825;53.496;10.020;2022-08-04T13:51:00;34.70;1.00
26051;DHT22;13825;53.496;10.020;2022-08-04T13:53:31;34.90;1.00
26051;DHT22;13825;53.496;10.020;2022-08-04T13:55:59;34.80;1.00
26051;DHT22;13825;53.496;10.020;2022-08-04T13:58:29;35.20;1.00
26051;DHT22;13825;53.496;10.020;2022-08-04T14:00:59;35.00;1.00
26051;DHT22;13825;53.496;10.020;2022-08-04T14:03:29;34.70;1.00
26051;DHT22;13825;53.496;10.020;2022-08-04T14:06:12;34.50;1.00
26051;DHT22;13825;53.496;10.020;2022-08-04T14:08:50;34.60;1.00
26051;DHT22;13825;53.496;10.020;2022-08-04T14:11:18;35.60;1.00
26051;DHT22;13825;53.496;10.020;2022-08-04T14:13:45;36.20;1.00
26051;DHT22;13825;53.496;10.020;2022-08-04T14:16:14;37.20;1.00
26051;DHT22;13825;53.496;10.020;2022-08-04T14:18:41;37.70;1.00
26051;DHT22;13825;53.496;10.020;2022-08-04T14:21:09;38.20;1.00
26051;DHT22;13825;53.496;10.020;2022-08-04T14:23:49;38.20;1.00
26051;DHT22;13825;53.496;10.020;2022-08-04T14:26:22;38.50;1.00
26051;DHT22;13825;53.496;10.020;2022-08-04T14:28:50;38.40;1.00
26051;DHT22;13825;53.496;10.020;2022-08-04T14:31:18;38.40;1.00
26051;DHT22;13825;53.496;10.020;2022-08-04T14:33:47;38.70;1.00
26051;DHT22;13825;53.496;10.020;2022-08-04T14:36:14;39.30;1.00
26051;DHT22;13825;53.496;10.020;2022-08-04T14:38:44;39.10;1.00
26051;DHT22;13825;53.496;10.020;2022-08-04T14:41:14;39.50;1.00
26051;DHT22;13825;53.496;10.020;2022-08-04T14:43:43;39.00;1.00
26051;DHT22;13825;53.496;10.020;2022-08-04T14:46:10;37.60;1.00
26051;DHT22;13825;53.496;10.020;2022-08-04T14:48:38;36.60;1.00
26051;DHT22;13825;53.496;10.020;2022-08-04T14:51:11;36.10;1.00
26051;DHT22;13825;53.496;10.020;2022-08-04T14:53:39;35.30;1.00
26051;DHT22;13825;53.496;10.020;2022-08-04T14:56:06;34.70;1.00
26051;DHT22;13825;53.496;10.020;2022-08-04T14:58:35;34.40;1.00
26051;DHT22;13825;53.496;10.020;2022-08-04T15:01:04;33.80;1.00
26051;DHT22;13825;53.496;10.020;2022-08-04T15:03:32;33.40;1.00
26051;DHT22;13825;53.496;10.020;2022-08-04T15:06:00;32.80;1.00
26051;DHT22;13825;53.496;10.020;2022-08-04T15:08:27;32.10;1.00
26051;DHT22;13825;53.496;10.020;2022-08-04T15:10:56;31.80;2.60
26051;DHT22;13825;53.496;10.020;2022-08-04T15:13:24;31.20;7.00
26051;DHT22;13825;53.496;10.020;2022-08-04T15:15:53;30.70;19.70
26051;DHT22;13825;53.496;10.020;2022-08-04T15:18:20;30.50;49.00
26051;DHT22;13825;53.496;10.020;2022-08-04T15:20:47;30.30;78.80
26051;DHT22;13825;53.496;10.020;2022-08-04T15:23:14;30.20;92.40
26051;DHT22;13825;53.496;10.020;2022-08-04T15:25:45;29.90;95.30
26051;DHT22;13825;53.496;10.020;2022-08-04T15:28:15;29.70;94.60
26051;DHT22;13825;53.496;10.020;2022-08-04T15:30:45;29.40;95.20
26051;DHT22;13825;53.496;10.020;2022-08-04T15:33:15;29.20;95.80
26051;DHT22;13825;53.496;10.020;2022-08-04T15:35:49;29.00;95.30
26051;DHT22;13825;53.496;10.020;2022-08-04T15:38:27;28.90;96.50
26051;DHT22;13825;53.496;10.020;2022-08-04T15:41:01;28.70;96.70
26051;DHT22;13825;53.496;10.020;2022-08-04T15:43:44;28.40;99.70
26051;DHT22;13825;53.496;10.020;2022-08-04T15:46:12;28.10;99.90
26051;DHT22;13825;53.496;10.020;2022-08-04T15:48:40;27.70;99.90
26051;DHT22;13825;53.496;10.020;2022-08-04T15:56:43;25.30;99.90
26051;DHT22;13825;53.496;10.020;2022-08-04T15:59:10;24.50;99.90
26051;DHT22;13825;53.496;10.020;2022-08-04T16:01:37;24.00;99.90
26051;DHT22;13825;53.496;10.020;2022-08-04T16:07:04;23.60;99.90
26051;DHT22;13825;53.496;10.020;2022-08-04T16:09:31;22.90;99.90
26051;DHT22;13825;53.496;10.020;2022-08-04T16:11:59;22.70;99.90
26051;DHT22;13825;53.496;10.020;2022-08-04T16:14:33;22.40;99.90
26051;DHT22;13825;53.496;10.020;2022-08-04T16:17:17;22.50;99.90
26051;DHT22;13825;53.496;10.020;2022-08-04T16:20:07;22.10;99.90
26051;DHT22;13825;53.496;10.020;2022-08-04T16:22:39;21.80;99.90
26051;DHT22;13825;53.496;10.020;2022-08-04T16:25:07;22.10;99.90
26051;DHT22;13825;53.496;10.020;2022-08-04T16:27:37;22.30;99.90
26051;DHT22;13825;53.496;10.020;2022-08-04T16:30:07;21.90;99.90
26051;DHT22;13825;53.496;10.020;2022-08-04T16:32:44;21.70;99.90
26051;DHT22;13825;53.496;10.020;2022-08-04T16:35:22;21.70;99.90
26051;DHT22;13825;53.496;10.020;2022-08-04T16:37:54;21.80;99.90
26051;DHT22;13825;53.496;10.020;2022-08-04T16:40:38;21.80;99.90
26051;DHT22;13825;53.496;10.020;2022-08-04T16:43:10;22.10;99.90
26051;DHT22;13825;53.496;10.020;2022-08-04T16:45:51;22.30;99.90
26051;DHT22;13825;53.496;10.020;2022-08-04T16:48:21;22.50;99.90
26051;DHT22;13825;53.496;10.020;2022-08-04T16:51:01;22.50;99.90
26051;DHT22;13825;53.496;10.020;2022-08-04T16:53:35;22.80;99.90
26051;DHT22;13825;53.496;10.020;2022-08-04T16:56:02;22.90;99.90